sensor_id;sensor_type;location;lat;lon;timestamp;temperature;humidity
35246;DHT22;21379;50.962;6.960;2023-04-01T00:01:37;11.00;99.90
35246;DHT22;21379;50.962;6.960;2023-04-01T00:04:04;10.90;99.90
35246;DHT22;21379;50.962;6.960;2023-04-01T00:06:31;10.90;99.90
35246;DHT22;21379;50.962;6.960;2023-04-01T00:08:59;11.00;99.90
35246;DHT22;21379;50.962;6.960;2023-04-01T00:11:26;11.00;99.90
35246;DHT22;21379;50.962;6.960;2023-04-01T00:13:54;11.00;99.90
35246;DHT22;21379;50.962;6.960;2023-04-01T00:16:21;11.00;99.90
35246;DHT22;21379;50.962;6.960;2023-04-01T00:18:48;11.00;99.90
35246;DHT22;21379;50.962;6.960;2023-04-01T00:21:15;11.00;99.90
35246;DHT22;21379;50.962;6.960;2023-04-01T00:23:43;11.00;99.90
35246;DHT22;21379;50.962;6.960;2023-04-01T00:26:11;11.10;99.90
35246;DHT22;21379;50.962;6.960;2023-04-01T00:28:39;11.10;99.90
35246;DHT22;21379;50.962;6.960;2023-04-01T00:31:08;11.10;99.90
35246;DHT22;21379;50.962;6.960;2023-04-01T00:33:35;11.10;99.90
35246;DHT22;21379;50.962;6.960;2023-04-01T00:36:07;11.10;99.90
35246;DHT22;21379;50.962;6.960;2023-04-01T00:38:35;11.10;99.90
35246;DHT22;21379;50.962;6.960;2023-04-01T00:41:02;11.10;99.90
35246;DHT22;21379;50.962;6.960;2023-04-01T00:43:30;11.10;99.90
35246;DHT22;21379;50.962;6.960;2023-04-01T00:45:57;11.00;99.90
35246;DHT22;21379;50.962;6.960;2023-04-01T00:48:27;11.00;99.90
35246;DHT22;21379;50.962;6.960;2023-04-01T00:50:59;11.00;99.90
35246;DHT22;21379;50.962;6.960;2023-04-01T00:53:28;11.00;99.90
35246;DHT22;21379;50.962;6.960;2023-04-01T00:56:00;11.00;99.90
35246;DHT22;21379;50.962;6.960;2023-04-01T00:58:31;11.00;99.90
35246;DHT22;21379;50.962;6.960;2023-04-01T01:01:00;11.00;99.90
35246;DHT22;21379;50.962;6.960;2023-04-01T01:03:28;11.00;99.90
35246;DHT22;21379;50.962;6.960;2023-04-01T01:06:08;11.00;99.90
35246;DHT22;21379;50.962;6.960;2023-04-01T01:08:52;11.00;99.90
35246;DHT22;21379;50.962;6.960;2023-04-01T01:11:29;11.10;99.90
35246;DHT22;21379;50.962;6.960;2023-04-01T01:14:06;11.00;99.90
35246;DHT22;21379;50.962;6.960;2023-04-01T01:16:37;11.00;99.90
35246;DHT22;21379;50.962;6.960;2023-04-01T01:19:13;11.00;99.90
35246;DHT22;21379;50.962;6.960;2023-04-01T01:22:08;11.10;99.90
35246;DHT22;21379;50.962;6.960;2023-04-01T01:24:46;11.00;99.90
35246;DHT22;21379;50.962;6.960;2023-04-01T01:27:17;11.10;99.90
35246;DHT22;21379;50.962;6.960;2023-04-01T01:33:04;11.00;99.90
35246;DHT22;21379;50.962;6.960;2023-04-01T01:35:38;11.00;99.90
35246;DHT22;21379;50.962;6.960;2023-04-01T01:38:16;11.00;99.90
35246;DHT22;21379;50.962;6.960;2023-04-01T01:40:51;11.00;99.90
35246;DHT22;21379;50.962;6.960;2023-04-01T01:43:22;10.90;99.90
35246;DHT22;21379;50.962;6.960;2023-04-01T01:45:52;10.80;99.90
35246;DHT22;21379;50.962;6.960;2023-04-01T01:48:22;10.70;99.90
35246;DHT22;21379;50.962;6.960;2023-04-01T01:50:51;10.60;99.90
35246;DHT22;21379;50.962;6.960;2023-04-01T01:53:19;10.60;99.90
35246;DHT22;21379;50.962;6.960;2023-04-01T01:55:47;10.60;99.90
35246;DHT22;21379;50.962;6.960;2023-04-01T01:58:19;10.60;99.90
35246;DHT22;21379;50.962;6.960;2023-04-01T02:00:50;10.50;99.90
35246;DHT22;21379;50.962;6.960;2023-04-01T02:03:20;10.50;99.90
35246;DHT22;21379;50.962;6.960;2023-04-01T02:05:48;10.40;99.90
35246;DHT22;21379;50.962;6.960;2023-04-01T02:08:22;10.30;99.90
35246;DHT22;21379;50.962;6.960;2023-04-01T02:10:56;10.30;99.90
35246;DHT22;21379;50.962;6.960;2023-04-01T02:13:31;10.30;99.90
35246;DHT22;21379;50.962;6.960;2023-04-01T02:16:02;10.20;99.90
35246;DHT22;21379;50.962;6.960;2023-04-01T02:18:32;10.20;99.90
35246;DHT22;21379;50.962;6.960;2023-04-01T02:21:02;10.10;99.90
35246;DHT22;21379;50.962;6.960;2023-04-01T02:23:33;9.90;99.90
35246;DHT22;21379;50.962;6.960;2023-04-01T02:26:02;9.90;99.90
35246;DHT22;21379;50.962;6.960;2023-04-01T02:28:31;9.90;99.90
35246;DHT22;21379;50.962;6.960;2023-04-01T02:31:00;9.80;99.90
35246;DHT22;21379;50.962;6.960;2023-04-01T02:33:28;9.70;99.90
35246;DHT22;21379;50.962;6.960;2023-04-01T02:35:56;9.70;99.90
35246;DHT22;21379;50.962;6.960;2023-04-01T02:38:24;9.60;99.90
35246;DHT22;21379;50.962;6.960;2023-04-01T02:40:58;9.60;99.90
35246;DHT22;21379;50.962;6.960;2023-04-01T02:43:26;9.70;99.90
35246;DHT22;21379;50.962;6.960;2023-04-01T02:45:53;9.70;99.90
35246;DHT22;21379;50.962;6.960;2023-04-01T02:48:20;9.60;99.90
35246;DHT22;21379;50.962;6.960;2023-04-01T02:50:47;9.60;99.90
35246;DHT22;21379;50.962;6.960;2023-04-01T02:53:14;9.70;99.90
35246;DHT22;21379;50.962;6.960;2023-04-01T02:55:41;9.70;99.90
35246;DHT22;21379;50.962;6.960;2023-04-01T02:58:09;9.60;99.90
35246;DHT22;21379;50.962;6.960;2023-04-01T03:00:36;9.70;99.90
35246;DHT22;21379;50.962;6.960;2023-04-01T03:03:03;9.70;99.90
35246;DHT22;21379;50.962;6.960;2023-04-01T03:05:30;9.70;99.90
35246;DHT22;21379;50.962;6.960;2023-04-01T03:07:57;9.60;99.90
35246;DHT22;21379;50.962;6.960;2023-04-01T03:10:24;9.70;99.90
35246;DHT22;21379;50.962;6.960;2023-04-01T03:12:51;9.70;99.90
35246;DHT22;21379;50.962;6.960;2023-04-01T03:15:19;9.70;99.90
35246;DHT22;21379;50.962;6.960;2023-04-01T03:17:46;9.70;99.90
35246;DHT22;21379;50.962;6.960;2023-04-01T03:20:14;9.70;99.90
35246;DHT22;21379;50.962;6.960;2023-04-01T03:22:41;9.70;99.90
35246;DHT22;21379;50.962;6.960;2023-04-01T03:25:09;9.70;99.90
35246;DHT22;21379;50.962;6.960;2023-04-01T03:27:37;9.70;99.90
35246;DHT22;21379;50.962;6.960;2023-04-01T03:30:05;9.70;99.90
35246;DHT22;21379;50.962;6.960;2023-04-01T03:32:40;9.70;99.90
35246;DHT22;21379;50.962;6.960;2023-04-01T03:35:07;9.70;99.90
35246;DHT22;21379;50.962;6.960;2023-04-01T03:37:36;9.60;99.90
35246;DHT22;21379;50.962;6.960;2023-04-01T03:40:03;9.60;99.90
35246;DHT22;21379;50.962;6.960;2023-04-01T03:42:31;9.60;99.90
35246;DHT22;21379;50.962;6.960;2023-04-01T03:44:58;9.60;99.90
35246;DHT22;21379;50.962;6.960;2023-04-01T03:47:25;9.60;99.90
35246;DHT22;21379;50.962;6.960;2023-04-01T03:49:54;9.70;99.90
35246;DHT22;21379;50.962;6.960;2023-04-01T03:52:21;9.60;99.90
35246;DHT22;21379;50.962;6.960;2023-04-01T03:54:48;9.60;99.90
35246;DHT22;21379;50.962;6.960;2023-04-01T03:57:16;9.60;99.90
35246;DHT22;21379;50.962;6.960;2023-04-01T03:59:43;9.70;99.90
35246;DHT22;21379;50.962;6.960;2023-04-01T04:02:10;9.70;99.90
35246;DHT22;21379;50.962;6.960;2023-04-01T04:04:37;9.60;99.90
35246;DHT22;21379;50.962;6.960;2023-04-01T04:07:05;9.70;99.90
35246;DHT22;21379;50.962;6.960;2023-04-01T04:09:51;9.60;99.90
35246;DHT22;21379;50.962;6.960;2023-04-01T04:12:18;9.70;99.90
35246;DHT22;21379;50.962;6.960;2023-04-01T04:14:45;9.80;99.90
35246;DHT22;21379;50.962;6.960;2023-04-01T04:17:12;9.80;99.90
35246;DHT22;21379;50.962;6.960;2023-04-01T04:19:42;9.80;99.90
35246;DHT22;21379;50.962;6.960;2023-04-01T04:22:11;9.80;99.90
35246;DHT22;21379;50.962;6.960;2023-04-01T04:24:38;9.90;99.90
35246;DHT22;21379;50.962;6.960;2023-04-01T04:27:08;9.90;99.90
35246;DHT22;21379;50.962;6.960;2023-04-01T04:29:42;9.90;99.90
35246;DHT22;21379;50.962;6.960;2023-04-01T04:32:09;9.90;99.90
35246;DHT22;21379;50.962;6.960;2023-04-01T04:34:36;9.90;99.90
35246;DHT22;21379;50.962;6.960;2023-04-01T04:37:03;9.90;99.90
35246;DHT22;21379;50.962;6.960;2023-04-01T04:39:35;9.90;99.90
35246;DHT22;21379;50.962;6.960;2023-04-01T04:42:02;9.90;99.90
35246;DHT22;21379;50.962;6.960;2023-04-01T04:44:29;9.90;99.90
35246;DHT22;21379;50.962;6.960;2023-04-01T04:46:57;9.90;99.90
35246;DHT22;21379;50.962;6.960;2023-04-01T04:49:24;9.80;99.90
35246;DHT22;21379;50.962;6.960;2023-04-01T04:51:51;9.80;99.90
35246;DHT22;21379;50.962;6.960;2023-04-01T04:54:22;9.80;99.90
35246;DHT22;21379;50.962;6.960;2023-04-01T04:56:58;9.70;99.90
35246;DHT22;21379;50.962;6.960;2023-04-01T04:59:28;9.70;99.90
35246;DHT22;21379;50.962;6.960;2023-04-01T05:02:04;9.70;99.90
35246;DHT22;21379;50.962;6.960;2023-04-01T05:04:34;9.60;99.90
35246;DHT22;21379;50.962;6.960;2023-04-01T05:07:01;9.60;99.90
35246;DHT22;21379;50.962;6.960;2023-04-01T05:09:29;9.70;99.90
35246;DHT22;21379;50.962;6.960;2023-04-01T05:11:56;9.70;99.90
35246;DHT22;21379;50.962;6.960;2023-04-01T05:14:26;9.60;99.90
35246;DHT22;21379;50.962;6.960;2023-04-01T05:17:01;9.60;99.90
35246;DHT22;21379;50.962;6.960;2023-04-01T05:19:28;9.60;99.90
35246;DHT22;21379;50.962;6.960;2023-04-01T05:21:55;9.60;99.90
35246;DHT22;21379;50.962;6.960;2023-04-01T05:24:22;9.60;99.90
35246;DHT22;21379;50.962;6.960;2023-04-01T05:26:50;9.60;99.90
35246;DHT22;21379;50.962;6.960;2023-04-01T05:29:17;9.60;99.90
35246;DHT22;21379;50.962;6.960;2023-04-01T05:31:48;9.70;99.90
35246;DHT22;21379;50.962;6.960;2023-04-01T05:34:15;9.70;99.90
35246;DHT22;21379;50.962;6.960;2023-04-01T05:36:43;9.70;99.90
35246;DHT22;21379;50.962;6.960;2023-04-01T05:39:10;9.70;99.90
35246;DHT22;21379;50.962;6.960;2023-04-01T05:41:39;9.70;99.90
35246;DHT22;21379;50.962;6.960;2023-04-01T05:44:07;9.70;99.90
35246;DHT22;21379;50.962;6.960;2023-04-01T05:46:40;9.60;99.90
35246;DHT22;21379;50.962;6.960;2023-04-01T05:49:17;9.60;99.90
35246;DHT22;21379;50.962;6.960;2023-04-01T05:51:44;9.60;99.90
35246;DHT22;21379;50.962;6.960;2023-04-01T05:54:11;9.60;99.90
35246;DHT22;21379;50.962;6.960;2023-04-01T05:56:39;9.60;99.90
35246;DHT22;21379;50.962;6.960;2023-04-01T05:59:06;9.60;99.90
35246;DHT22;21379;50.962;6.960;2023-04-01T06:01:32;9.60;99.90
35246;DHT22;21379;50.962;6.960;2023-04-01T06:03:59;9.60;99.90
35246;DHT22;21379;50.962;6.960;2023-04-01T06:06:29;9.60;99.90
35246;DHT22;21379;50.962;6.960;2023-04-01T06:09:13;9.60;99.90
35246;DHT22;21379;50.962;6.960;2023-04-01T06:11:55;9.60;99.90
35246;DHT22;21379;50.962;6.960;2023-04-01T06:14:35;9.60;99.90
35246;DHT22;21379;50.962;6.960;2023-04-01T06:17:16;9.50;99.90
35246;DHT22;21379;50.962;6.960;2023-04-01T06:19:51;9.60;99.90
35246;DHT22;21379;50.962;6.960;2023-04-01T06:22:31;9.50;99.90
35246;DHT22;21379;50.962;6.960;2023-04-01T06:25:17;9.60;99.90
35246;DHT22;21379;50.962;6.960;2023-04-01T06:28:02;9.60;99.90
35246;DHT22;21379;50.962;6.960;2023-04-01T06:30:38;9.70;99.90
35246;DHT22;21379;50.962;6.960;2023-04-01T06:33:20;9.70;99.90
35246;DHT22;21379;50.962;6.960;2023-04-01T06:36:10;9.80;99.90
35246;DHT22;21379;50.962;6.960;2023-04-01T06:42:09;9.70;99.90
35246;DHT22;21379;50.962;6.960;2023-04-01T06:44:48;9.80;99.90
35246;DHT22;21379;50.962;6.960;2023-04-01T06:47:44;9.80;99.90
35246;DHT22;21379;50.962;6.960;2023-04-01T06:50:38;9.90;99.90
35246;DHT22;21379;50.962;6.960;2023-04-01T06:53:31;9.90;99.90
35246;DHT22;21379;50.962;6.960;2023-04-01T06:56:12;9.90;99.90
35246;DHT22;21379;50.962;6.960;2023-04-01T06:59:09;9.90;99.90
35246;DHT22;21379;50.962;6.960;2023-04-01T07:01:40;10.00;99.90
35246;DHT22;21379;50.962;6.960;2023-04-01T07:04:13;10.00;99.90
35246;DHT22;21379;50.962;6.960;2023-04-01T07:06:45;10.00;99.90
35246;DHT22;21379;50.962;6.960;2023-04-01T07:09:18;10.00;99.90
35246;DHT22;21379;50.962;6.960;2023-04-01T07:12:12;10.00;99.90
35246;DHT22;21379;50.962;6.960;2023-04-01T07:15:22;9.90;99.90
35246;DHT22;21379;50.962;6.960;2023-04-01T07:17:54;9.90;99.90
35246;DHT22;21379;50.962;6.960;2023-04-01T07:20:25;9.90;99.90
35246;DHT22;21379;50.962;6.960;2023-04-01T07:22:56;9.90;99.90
35246;DHT22;21379;50.962;6.960;2023-04-01T07:25:31;9.90;99.90
35246;DHT22;21379;50.962;6.960;2023-04-01T07:28:21;9.80;99.90
35246;DHT22;21379;50.962;6.960;2023-04-01T07:31:05;9.90;99.90
35246;DHT22;21379;50.962;6.960;2023-04-01T07:33:41;9.90;99.90
35246;DHT22;21379;50.962;6.960;2023-04-01T07:36:14;9.90;99.90
35246;DHT22;21379;50.962;6.960;2023-04-01T07:38:55;9.90;99.90
35246;DHT22;21379;50.962;6.960;2023-04-01T07:41:51;9.90;99.90
35246;DHT22;21379;50.962;6.960;2023-04-01T07:44:27;10.00;99.90
35246;DHT22;21379;50.962;6.960;2023-04-01T07:47:25;10.00;99.90
35246;DHT22;21379;50.962;6.960;2023-04-01T07:50:07;10.00;99.90
35246;DHT22;21379;50.962;6.960;2023-04-01T07:52:42;10.10;99.90
35246;DHT22;21379;50.962;6.960;2023-04-01T07:55:24;10.10;99.90
35246;DHT22;21379;50.962;6.960;2023-04-01T07:57:58;10.10;99.90
35246;DHT22;21379;50.962;6.960;2023-04-01T08:00:29;10.10;99.90
35246;DHT22;21379;50.962;6.960;2023-04-01T08:03:19;10.20;99.90
35246;DHT22;21379;50.962;6.960;2023-04-01T08:05:54;10.10;99.90
35246;DHT22;21379;50.962;6.960;2023-04-01T08:08:31;10.10;99.90
35246;DHT22;21379;50.962;6.960;2023-04-01T08:11:31;10.10;99.90
35246;DHT22;21379;50.962;6.960;2023-04-01T08:14:26;10.10;99.90
35246;DHT22;21379;50.962;6.960;2023-04-01T08:17:20;10.20;99.90
35246;DHT22;21379;50.962;6.960;2023-04-01T08:20:10;10.10;99.90
35246;DHT22;21379;50.962;6.960;2023-04-01T08:22:42;10.10;99.90
35246;DHT22;21379;50.962;6.960;2023-04-01T08:25:22;10.10;99.90
35246;DHT22;21379;50.962;6.960;2023-04-01T08:27:55;10.20;99.90
35246;DHT22;21379;50.962;6.960;2023-04-01T08:30:24;10.20;99.90
35246;DHT22;21379;50.962;6.960;2023-04-01T08:32:56;10.20;99.90
35246;DHT22;21379;50.962;6.960;2023-04-01T08:35:29;10.20;99.90
35246;DHT22;21379;50.962;6.960;2023-04-01T08:38:05;10.30;99.90
35246;DHT22;21379;50.962;6.960;2023-04-01T08:40:57;10.30;99.90
35246;DHT22;21379;50.962;6.960;2023-04-01T08:47:01;10.20;99.90
35246;DHT22;21379;50.962;6.960;2023-04-01T08:49:51;10.20;99.90
35246;DHT22;21379;50.962;6.960;2023-04-01T08:52:44;10.20;99.90
35246;DHT22;21379;50.962;6.960;2023-04-01T08:55:25;10.30;99.90
35246;DHT22;21379;50.962;6.960;2023-04-01T08:58:27;10.40;99.90
35246;DHT22;21379;50.962;6.960;2023-04-01T09:01:17;10.30;99.90
35246;DHT22;21379;50.962;6.960;2023-04-01T09:04:03;10.40;99.90
35246;DHT22;21379;50.962;6.960;2023-04-01T09:06:44;10.40;99.90
35246;DHT22;21379;50.962;6.960;2023-04-01T09:09:40;10.40;99.90
35246;DHT22;21379;50.962;6.960;2023-04-01T09:12:29;10.40;99.90
35246;DHT22;21379;50.962;6.960;2023-04-01T09:15:18;10.40;99.90
35246;DHT22;21379;50.962;6.960;2023-04-01T09:21:08;10.40;99.90
35246;DHT22;21379;50.962;6.960;2023-04-01T09:23:53;10.40;99.90
35246;DHT22;21379;50.962;6.960;2023-04-01T09:26:41;10.40;99.90
35246;DHT22;21379;50.962;6.960;2023-04-01T09:29:24;10.30;99.90
35246;DHT22;21379;50.962;6.960;2023-04-01T09:32:12;10.40;99.90
35246;DHT22;21379;50.962;6.960;2023-04-01T09:35:24;10.40;99.90
35246;DHT22;21379;50.962;6.960;2023-04-01T09:38:06;10.30;99.90
35246;DHT22;21379;50.962;6.960;2023-04-01T09:40:51;10.40;99.90
35246;DHT22;21379;50.962;6.960;2023-04-01T09:43:45;10.40;99.90
35246;DHT22;21379;50.962;6.960;2023-04-01T09:46:19;10.40;99.90
35246;DHT22;21379;50.962;6.960;2023-04-01T09:49:17;10.30;99.90
35246;DHT22;21379;50.962;6.960;2023-04-01T09:51:58;10.40;99.90
35246;DHT22;21379;50.962;6.960;2023-04-01T09:54:41;10.30;99.90
35246;DHT22;21379;50.962;6.960;2023-04-01T09:57:39;10.30;99.90
35246;DHT22;21379;50.962;6.960;2023-04-01T10:01:09;10.40;99.90
35246;DHT22;21379;50.962;6.960;2023-04-01T10:07:07;10.40;99.90
35246;DHT22;21379;50.962;6.960;2023-04-01T10:12:55;10.40;99.90
35246;DHT22;21379;50.962;6.960;2023-04-01T10:16:05;10.50;99.90
35246;DHT22;21379;50.962;6.960;2023-04-01T10:22:05;10.60;99.90
35246;DHT22;21379;50.962;6.960;2023-04-01T10:28:27;10.70;99.90
35246;DHT22;21379;50.962;6.960;2023-04-01T10:31:43;10.60;99.90
35246;DHT22;21379;50.962;6.960;2023-04-01T10:37:23;10.70;99.90
35246;DHT22;21379;50.962;6.960;2023-04-01T10:40:17;10.70;99.90
35246;DHT22;21379;50.962;6.960;2023-04-01T10:43:46;10.70;99.90
35246;DHT22;21379;50.962;6.960;2023-04-01T10:46:50;10.80;99.90
35246;DHT22;21379;50.962;6.960;2023-04-01T10:49:57;10.90;99.90
35246;DHT22;21379;50.962;6.960;2023-04-01T10:56:11;11.00;99.90
35246;DHT22;21379;50.962;6.960;2023-04-01T10:59:24;11.00;99.90
35246;DHT22;21379;50.962;6.960;2023-04-01T11:05:58;11.20;99.90
35246;DHT22;21379;50.962;6.960;2023-04-01T11:09:02;11.30;99.90
35246;DHT22;21379;50.962;6.960;2023-04-01T11:28:34;11.30;99.90
35246;DHT22;21379;50.962;6.960;2023-04-01T11:31:34;11.40;99.90
35246;DHT22;21379;50.962;6.960;2023-04-01T11:34:13;11.50;99.90
35246;DHT22;21379;50.962;6.960;2023-04-01T11:36:52;11.50;99.90
35246;DHT22;21379;50.962;6.960;2023-04-01T11:39:32;11.60;99.90
35246;DHT22;21379;50.962;6.960;2023-04-01T11:42:34;11.60;99.90
35246;DHT22;21379;50.962;6.960;2023-04-01T11:45:33;11.70;99.90
35246;DHT22;21379;50.962;6.960;2023-04-01T11:48:13;11.70;99.90
35246;DHT22;21379;50.962;6.960;2023-04-01T11:50:58;11.80;99.90
35246;DHT22;21379;50.962;6.960;2023-04-01T11:53:36;11.90;99.90
35246;DHT22;21379;50.962;6.960;2023-04-01T11:56:17;11.90;99.90
35246;DHT22;21379;50.962;6.960;2023-04-01T11:59:09;11.70;99.90
35246;DHT22;21379;50.962;6.960;2023-04-01T12:01:50;11.80;99.90
35246;DHT22;21379;50.962;6.960;2023-04-01T12:07:51;11.70;99.90
35246;DHT22;21379;50.962;6.960;2023-04-01T12:10:24;11.50;99.90
35246;DHT22;21379;50.962;6.960;2023-04-01T12:12:59;11.60;99.90
35246;DHT22;21379;50.962;6.960;2023-04-01T12:15:36;11.70;
35246;DHT22;21379;50.962;6.960;2023-04-01T12:18:15;11.70;99.90
35246;DHT22;21379;50.962;6.960;2023-04-01T12:20:49;11.80;99.90
35246;DHT22;21379;50.962;6.960;2023-04-01T12:26:30;12.00;99.90
35246;DHT22;21379;50.962;6.960;2023-04-01T12:29:08;11.90;99.90
35246;DHT22;21379;50.962;6.960;2023-04-01T12:31:47;11.90;99.90
35246;DHT22;21379;50.962;6.960;2023-04-01T12:34:40;12.00;99.90
35246;DHT22;21379;50.962;6.960;2023-04-01T12:37:13;12.00;99.90
35246;DHT22;21379;50.962;6.960;2023-04-01T12:40:05;12.10;99.90
35246;DHT22;21379;50.962;6.960;2023-04-01T12:42:57;12.10;99.90
35246;DHT22;21379;50.962;6.960;2023-04-01T12:45:30;12.10;99.90
35246;DHT22;21379;50.962;6.960;2023-04-01T12:48:10;12.10;99.90
35246;DHT22;21379;50.962;6.960;2023-04-01T12:57:09;12.10;99.90
35246;DHT22;21379;50.962;6.960;2023-04-01T12:59:55;11.90;99.90
35246;DHT22;21379;50.962;6.960;2023-04-01T13:02:37;11.80;99.90
35246;DHT22;21379;50.962;6.960;2023-04-01T13:05:23;11.80;99.90
35246;DHT22;21379;50.962;6.960;2023-04-01T13:11:02;11.70;99.90
35246;DHT22;21379;50.962;6.960;2023-04-01T13:14:07;11.90;99.90
35246;DHT22;21379;50.962;6.960;2023-04-01T13:16:38;12.00;99.90
35246;DHT22;21379;50.962;6.960;2023-04-01T13:19:09;12.00;99.90
35246;DHT22;21379;50.962;6.960;2023-04-01T13:21:45;12.00;99.90
35246;DHT22;21379;50.962;6.960;2023-04-01T13:24:28;11.90;99.90
35246;DHT22;21379;50.962;6.960;2023-04-01T13:27:03;11.90;99.90
35246;DHT22;21379;50.962;6.960;2023-04-01T13:29:36;12.00;99.90
35246;DHT22;21379;50.962;6.960;2023-04-01T13:32:22;12.10;99.90
35246;DHT22;21379;50.962;6.960;2023-04-01T13:35:03;12.30;99.90
35246;DHT22;21379;50.962;6.960;2023-04-01T13:37:47;12.40;99.90
35246;DHT22;21379;50.962;6.960;2023-04-01T13:40:32;12.40;99.90
35246;DHT22;21379;50.962;6.960;2023-04-01T13:43:03;12.40;99.90
35246;DHT22;21379;50.962;6.960;2023-04-01T13:45:38;12.20;99.90
35246;DHT22;21379;50.962;6.960;2023-04-01T13:48:29;12.20;99.90
35246;DHT22;21379;50.962;6.960;2023-04-01T13:51:16;12.00;99.90
35246;DHT22;21379;50.962;6.960;2023-04-01T13:54:09;11.80;99.90
35246;DHT22;21379;50.962;6.960;2023-04-01T13:56:49;11.80;99.90
35246;DHT22;21379;50.962;6.960;2023-04-01T13:59:39;11.70;99.90
35246;DHT22;21379;50.962;6.960;2023-04-01T14:02:29;11.70;99.90
35246;DHT22;21379;50.962;6.960;2023-04-01T14:05:23;11.50;99.90
35246;DHT22;21379;50.962;6.960;2023-04-01T14:08:00;11.50;99.90
35246;DHT22;21379;50.962;6.960;2023-04-01T14:10:38;11.50;99.90
35246;DHT22;21379;50.962;6.960;2023-04-01T14:13:12;11.40;99.90
35246;DHT22;21379;50.962;6.960;2023-04-01T14:15:54;11.40;99.90
35246;DHT22;21379;50.962;6.960;2023-04-01T14:18:36;11.40;99.90
35246;DHT22;21379;50.962;6.960;2023-04-01T14:21:23;11.40;99.90
35246;DHT22;21379;50.962;6.960;2023-04-01T14:24:17;11.40;99.90
35246;DHT22;21379;50.962;6.960;2023-04-01T14:27:09;11.50;99.90
35246;DHT22;21379;50.962;6.960;2023-04-01T14:29:46;11.50;99.90
35246;DHT22;21379;50.962;6.960;2023-04-01T14:32:27;11.40;99.90
35246;DHT22;21379;50.962;6.960;2023-04-01T14:35:14;11.30;99.90
35246;DHT22;21379;50.962;6.960;2023-04-01T14:38:19;11.30;99.90
35246;DHT22;21379;50.962;6.960;2023-04-01T14:40:56;11.30;99.90
35246;DHT22;21379;50.962;6.960;2023-04-01T14:49:23;11.30;99.90
35246;DHT22;21379;50.962;6.960;2023-04-01T14:51:52;11.30;99.90
35246;DHT22;21379;50.962;6.960;2023-04-01T14:54:25;11.20;99.90
35246;DHT22;21379;50.962;6.960;2023-04-01T14:57:09;11.30;99.90
35246;DHT22;21379;50.962;6.960;2023-04-01T14:59:40;11.30;99.90
35246;DHT22;21379;50.962;6.960;2023-04-01T15:02:21;11.40;99.90
35246;DHT22;21379;50.962;6.960;2023-04-01T15:04:58;11.40;99.90
35246;DHT22;21379;50.962;6.960;2023-04-01T15:10:53;11.40;99.90
35246;DHT22;21379;50.962;6.960;2023-04-01T15:16:21;11.40;99.90
35246;DHT22;21379;50.962;6.960;2023-04-01T15:19:00;11.40;99.90
35246;DHT22;21379;50.962;6.960;2023-04-01T15:21:41;11.40;99.90
35246;DHT22;21379;50.962;6.960;2023-04-01T15:24:20;11.40;99.90
35246;DHT22;21379;50.962;6.960;2023-04-01T15:27:01;11.40;99.90
35246;DHT22;21379;50.962;6.960;2023-04-01T15:32:48;11.40;99.90
35246;DHT22;21379;50.962;6.960;2023-04-01T15:35:25;11.40;99.90
35246;DHT22;21379;50.962;6.960;2023-04-01T15:38:03;11.40;99.90
35246;DHT22;21379;50.962;6.960;2023-04-01T15:40:41;11.40;99.90
35246;DHT22;21379;50.962;6.960;2023-04-01T15:43:21;11.40;99.90
35246;DHT22;21379;50.962;6.960;2023-04-01T15:45:58;11.40;99.90
35246;DHT22;21379;50.962;6.960;2023-04-01T15:48:54;11.50;99.90
35246;DHT22;21379;50.962;6.960;2023-04-01T15:51:37;11.50;99.90
35246;DHT22;21379;50.962;6.960;2023-04-01T15:54:21;11.50;99.90
35246;DHT22;21379;50.962;6.960;2023-04-01T15:57:01;11.30;99.90
35246;DHT22;21379;50.962;6.960;2023-04-01T15:59:48;11.30;99.90
35246;DHT22;21379;50.962;6.960;2023-04-01T16:02:22;11.40;99.90
35246;DHT22;21379;50.962;6.960;2023-04-01T16:04:57;11.30;99.90
35246;DHT22;21379;50.962;6.960;2023-04-01T16:07:37;11.30;99.90
35246;DHT22;21379;50.962;6.960;2023-04-01T16:10:28;11.30;99.90
35246;DHT22;21379;50.962;6.960;2023-04-01T16:13:11;11.20;99.90
35246;DHT22;21379;50.962;6.960;2023-04-01T16:15:48;11.20;99.90
35246;DHT22;21379;50.962;6.960;2023-04-01T16:18:34;11.20;99.90
35246;DHT22;21379;50.962;6.960;2023-04-01T16:21:12;11.20;99.90
35246;DHT22;21379;50.962;6.960;2023-04-01T16:23:43;11.20;99.90
35246;DHT22;21379;50.962;6.960;2023-04-01T16:26:20;11.20;99.90
35246;DHT22;21379;50.962;6.960;2023-04-01T16:28:54;11.30;99.90
35246;DHT22;21379;50.962;6.960;2023-04-01T16:31:32;11.20;99.90
35246;DHT22;21379;50.962;6.960;2023-04-01T16:34:04;11.20;99.90
35246;DHT22;21379;50.962;6.960;2023-04-01T16:36:37;11.20;99.90
35246;DHT22;21379;50.962;6.960;2023-04-01T16:39:18;11.10;99.90
35246;DHT22;21379;50.962;6.960;2023-04-01T16:41:49;11.10;99.90
35246;DHT22;21379;50.962;6.960;2023-04-01T16:44:22;11.00;99.90
35246;DHT22;21379;50.962;6.960;2023-04-01T16:46:51;10.90;99.90
35246;DHT22;21379;50.962;6.960;2023-04-01T16:49:32;10.80;99.90
35246;DHT22;21379;50.962;6.960;2023-04-01T16:52:34;10.80;99.90
35246;DHT22;21379;50.962;6.960;2023-04-01T16:55:08;10.80;99.90
35246;DHT22;21379;50.962;6.960;2023-04-01T16:57:48;10.70;99.90
35246;DHT22;21379;50.962;6.960;2023-04-01T17:00:24;10.70;99.90
35246;DHT22;21379;50.962;6.960;2023-04-01T17:02:58;10.70;99.90
35246;DHT22;21379;50.962;6.960;2023-04-01T17:05:43;10.80;99.90
35246;DHT22;21379;50.962;6.960;2023-04-01T17:08:28;10.70;99.90
35246;DHT22;21379;50.962;6.960;2023-04-01T17:11:04;10.70;99.90
35246;DHT22;21379;50.962;6.960;2023-04-01T17:13:37;10.60;99.90
35246;DHT22;21379;50.962;6.960;2023-04-01T17:16:30;10.60;99.90
35246;DHT22;21379;50.962;6.960;2023-04-01T17:19:14;10.60;99.90
35246;DHT22;21379;50.962;6.960;2023-04-01T17:21:53;10.60;99.90
35246;DHT22;21379;50.962;6.960;2023-04-01T17:24:38;10.60;99.90
35246;DHT22;21379;50.962;6.960;2023-04-01T17:27:21;10.50;99.90
35246;DHT22;21379;50.962;6.960;2023-04-01T17:30:26;10.50;99.90
35246;DHT22;21379;50.962;6.960;2023-04-01T17:35:56;10.40;99.90
35246;DHT22;21379;50.962;6.960;2023-04-01T17:38:47;10.30;99.90
35246;DHT22;21379;50.962;6.960;2023-04-01T17:41:27;10.30;99.90
35246;DHT22;21379;50.962;6.960;2023-04-01T17:44:05;10.30;99.90
35246;DHT22;21379;50.962;6.960;2023-04-01T17:46:44;10.30;99.90
35246;DHT22;21379;50.962;6.960;2023-04-01T17:49:23;10.30;99.90
35246;DHT22;21379;50.962;6.960;2023-04-01T17:51:57;10.30;99.90
35246;DHT22;21379;50.962;6.960;2023-04-01T17:54:28;10.30;99.90
35246;DHT22;21379;50.962;6.960;2023-04-01T17:57:09;10.30;99.90
35246;DHT22;21379;50.962;6.960;2023-04-01T17:59:58;10.30;99.90
35246;DHT22;21379;50.962;6.960;2023-04-01T18:02:42;10.20;99.90
35246;DHT22;21379;50.962;6.960;2023-04-01T18:05:25;10.20;99.90
35246;DHT22;21379;50.962;6.960;2023-04-01T18:08:03;10.20;99.90
35246;DHT22;21379;50.962;6.960;2023-04-01T18:10:41;10.20;99.90